Time;durP1;ratioP1;P1;durP2;ratioP2;P2;SDS_P1;SDS_P2;PMS_P1;PMS_P2;Temp;Humidity;BMP_temperature;BMP_pressure;BME280_temperature;BME280_humidity;BME280_pressure;Samples;Min_cycle;Max_cycle;Signal;HPM_P1;HPM_P2
2022/11/01 00:01:02;;;;;;;13.73;4.23;;;-40.00;99.90;;;;;;5092049;28;20306;-76
2022/11/01 00:03:28;;;;;;;6.23;3.90;;;-40.00;99.90;;;;;;5092629;28;20218;-74
2022/11/01 00:05:53;;;;;;;5.63;4.43;;;-40.00;99.90;;;;;;5091890;28;20191;-76
2022/11/01 00:08:19;;;;;;;8.50;5.23;;;-40.00;99.90;;;;;;5090782;28;20508;-77
2022/11/01 00:10:45;;;;;;;12.60;5.03;;;-40.00;99.90;;;;;;5088708;28;20245;-74
2022/11/01 00:13:11;;;;;;;9.10;4.77;;;-40.00;99.90;;;;;;5095737;28;20186;-76
2022/11/01 00:15:36;;;;;;;7.43;4.73;;;-40.00;99.90;;;;;;5095798;28;20226;-73
2022/11/01 00:18:02;;;;;;;6.53;4.57;;;-40.00;99.90;;;;;;5095521;28;20193;-76
2022/11/01 00:20:28;;;;;;;9.87;4.83;;;-40.00;99.90;;;;;;5095770;28;20193;-74
2022/11/01 00:22:54;;;;;;;5.90;4.03;;;-40.00;99.90;;;;;;5094935;28;20236;-77
2022/11/01 00:25:19;;;;;;;7.27;4.60;;;-40.00;99.90;;;;;;5095682;28;20267;-75
2022/11/01 00:27:45;;;;;;;6.47;4.17;;;-40.00;99.90;;;;;;5085638;28;20201;-76
2022/11/01 00:30:11;;;;;;;5.63;4.23;;;-40.00;99.90;;;;;;5080991;28;20179;-73
2022/11/01 00:32:37;;;;;;;5.70;4.67;;;-40.00;99.90;;;;;;5086621;28;20189;-72
2022/11/01 00:35:03;;;;;;;5.00;4.33;;;-40.00;99.90;;;;;;5087104;28;20502;-75
2022/11/01 00:37:29;;;;;;;6.10;4.10;;;-40.00;99.90;;;;;;5089559;28;20291;-77
2022/11/01 00:39:55;;;;;;;7.10;4.33;;;-40.00;99.90;;;;;;5097851;28;20188;-77
2022/11/01 00:42:21;;;;;;;7.33;5.03;;;-40.00;99.90;;;;;;5086135;28;20203;-74
2022/11/01 00:44:46;;;;;;;5.07;4.30;;;-40.00;99.90;;;;;;5092531;28;20183;-76
2022/11/01 00:47:12;;;;;;;9.20;4.37;;;-40.00;99.90;;;;;;5092169;28;20198;-77
2022/11/01 00:49:38;;;;;;;9.77;4.20;;;-40.00;99.90;;;;;;5090104;28;20217;-73
2022/11/01 00:52:03;;;;;;;7.30;3.87;;;-40.00;99.90;;;;;;5091553;28;20189;-76
2022/11/01 00:54:29;;;;;;;6.43;3.77;;;-40.00;99.90;;;;;;5098990;28;20468;-75
2022/11/01 00:56:55;;;;;;;9.67;4.67;;;-40.00;99.90;;;;;;5095646;28;20189;-71
2022/11/01 00:59:21;;;;;;;6.47;4.10;;;-40.00;99.90;;;;;;5097791;28;20193;-73
2022/11/01 01:01:46;;;;;;;4.73;3.30;;;-40.00;99.90;;;;;;5088425;28;20199;-76
2022/11/01 01:04:12;;;;;;;16.83;3.83;;;-40.00;99.90;;;;;;5088971;28;20211;-74
2022/11/01 01:06:38;;;;;;;5.53;3.20;;;-40.00;99.90;;;;;;5095096;28;20186;-77
2022/11/01 01:09:04;;;;;;;5.03;3.37;;;-40.00;99.90;;;;;;5098845;28;20605;-73
2022/11/01 01:11:29;;;;;;;9.83;4.63;;;-40.00;99.90;;;;;;5099015;28;20182;-71
2022/11/01 01:13:55;;;;;;;5.27;3.20;;;-40.00;99.90;;;;;;5094356;28;20570;-72
2022/11/01 01:16:21;;;;;;;20.30;3.77;;;-40.00;99.90;;;;;;5097944;28;20186;-70
2022/11/01 01:18:47;;;;;;;7.33;3.97;;;-40.00;99.90;;;;;;5086344;28;20185;-70
2022/11/01 01:21:14;;;;;;;7.37;3.90;;;-40.00;99.90;;;;;;5093630;28;20178;-73
2022/11/01 01:23:40;;;;;;;8.10;3.73;;;-40.00;99.90;;;;;;5098695;28;20206;-72
2022/11/01 01:26:07;;;;;;;6.40;3.90;;;-40.00;99.90;;;;;;5093132;28;20249;-73
2022/11/01 01:28:34;;;;;;;8.50;3.63;;;-40.00;99.90;;;;;;5085387;28;20183;-71
2022/11/01 01:31:04;;;;;;;4.47;2.70;;;-40.00;99.90;;;;;;5098559;28;20190;-71
2022/11/01 01:33:30;;;;;;;3.70;2.90;;;-40.00;99.90;;;;;;5088475;28;20191;-70
2022/11/01 01:35:59;;;;;;;4.77;3.27;;;-40.00;99.90;;;;;;5092181;28;20189;-71
2022/11/01 01:38:25;;;;;;;8.60;2.97;;;-40.00;99.90;;;;;;5087323;28;20243;-73
2022/11/01 01:40:51;;;;;;;6.63;3.57;;;-40.00;99.90;;;;;;5092151;28;20186;-73
2022/11/01 01:43:17;;;;;;;3.53;2.63;;;-40.00;99.90;;;;;;5098082;28;20289;-72
2022/11/01 01:45:43;;;;;;;4.20;3.47;;;-40.00;99.90;;;;;;5095916;28;20186;-72
2022/11/01 01:48:14;;;;;;;7.40;3.13;;;-40.00;99.90;;;;;;5096290;28;20197;-71
2022/11/01 01:50:53;;;;;;;8.43;3.00;;;-40.00;99.90;;;;;;5088876;28;20497;-72
2022/11/01 01:53:31;;;;;;;4.00;2.97;;;-40.00;99.90;;;;;;5096705;28;20194;-71
2022/11/01 01:56:02;;;;;;;7.23;3.23;;;-36.10;99.90;;;;;;5091572;28;20589;-72
2022/11/01 01:58:31;;;;;;;3.23;2.53;;;-36.40;99.90;;;;;;5091369;28;20175;-73
2022/11/01 02:00:57;;;;;;;4.00;2.37;;;-35.20;99.90;;;;;;5096816;28;20191;-72
2022/11/01 02:03:28;;;;;;;2.17;1.97;;;-40.00;99.90;;;;;;5097726;28;20223;-73
2022/11/01 02:06:04;;;;;;;4.13;2.27;;;-40.00;99.90;;;;;;5097872;28;20213;-71
2022/11/01 02:08:31;;;;;;;4.40;1.80;;;-40.00;99.90;;;;;;5097310;28;20296;-71
2022/11/01 02:11:02;;;;;;;2.23;1.63;;;-39.00;99.90;;;;;;5090596;28;20179;-74
2022/11/01 02:13:30;;;;;;;6.17;1.40;;;-40.00;99.90;;;;;;5097821;28;20221;-72
2022/11/01 02:16:20;;;;;;;3.23;2.27;;;-38.90;99.90;;;;;;5087614;28;20183;-75
2022/11/01 02:19:08;;;;;;;1.57;1.43;;;-40.00;99.90;;;;;;5082995;28;20193;-73
2022/11/01 02:22:02;;;;;;;2.57;1.70;;;-38.90;99.90;;;;;;5088334;28;20185;-70
2022/11/01 02:24:51;;;;;;;3.93;2.17;;;-27.00;99.90;;;;;;5085732;28;20274;-71
2022/11/01 02:27:20;;;;;;;3.00;1.60;;;-40.00;99.90;;;;;;5097566;28;20719;-73
2022/11/01 02:30:07;;;;;;;4.10;0.97;;;-29.20;99.90;;;;;;5093833;28;21587;-72
2022/11/01 02:33:10;;;;;;;5.13;1.40;;;-32.20;99.90;;;;;;5093865;28;20186;-74
2022/11/01 02:35:53;;;;;;;2.83;1.03;;;-23.90;99.90;;;;;;5084424;28;20178;-75
2022/11/01 02:38:28;;;;;;;5.07;1.67;;;-34.80;99.90;;;;;;5084734;28;20635;-76
2022/11/01 02:41:00;;;;;;;2.60;1.80;;;-30.10;99.90;;;;;;5093290;28;20174;-78
2022/11/01 02:43:33;;;;;;;1.17;1.07;;;-28.20;99.90;;;;;;5097354;28;20201;-77
2022/11/01 02:46:59;;;;;;;3.93;1.40;;;-27.70;99.90;;;;;;5092399;27;20190;-76
2022/11/01 02:48:48;;;;;;;3.27;1.37;;;-25.50;99.90;;;;;;5095897;28;20190;-78
2022/11/01 02:51:18;;;;;;;1.17;0.80;;;-22.50;99.90;;;;;;5083434;28;20202;-78
2022/11/01 02:53:44;;;;;;;2.67;1.43;;;-24.90;99.90;;;;;;5082461;28;20218;-72
2022/11/01 02:56:10;;;;;;;12.30;1.80;;;-21.70;99.90;;;;;;5095378;28;20200;-78
2022/11/01 02:58:36;;;;;;;3.33;1.00;;;-14.60;99.90;;;;;;5095797;28;20206;-78
2022/11/01 03:01:13;;;;;;;2.60;0.90;;;-22.50;99.90;;;;;;5096576;28;20630;-78
2022/11/01 03:03:43;;;;;;;2.97;1.20;;;-16.70;99.90;;;;;;5094809;28;20252;-79
2022/11/01 03:06:38;;;;;;;2.87;0.87;;;-21.50;99.90;;;;;;5092135;28;20179;-81
2022/11/01 03:09:08;;;;;;;1.60;0.60;;;-23.10;99.90;;;;;;5087724;28;20638;-78
2022/11/01 03:11:53;;;;;;;2.17;0.87;;;-17.30;99.90;;;;;;5096783;28;20178;-77
2022/11/01 03:14:52;;;;;;;2.37;0.53;;;-23.40;99.90;;;;;;5092781;28;20187;-78
2022/11/01 03:17:40;;;;;;;6.73;1.10;;;-21.70;99.90;;;;;;5081358;28;20269;-79
2022/11/01 03:20:18;;;;;;;4.37;1.13;;;-18.80;99.90;;;;;;5092190;28;20215;-79
2022/11/01 03:22:51;;;;;;;4.00;0.97;;;-17.60;99.90;;;;;;5091530;28;20248;-72
2022/11/01 03:25:43;;;;;;;0.70;0.70;;;-17.50;99.90;;;;;;5092691;28;20179;-72
2022/11/01 03:28:22;;;;;;;3.00;1.23;;;-20.00;99.90;;;;;;5091825;28;20182;-72
2022/11/01 03:30:55;;;;;;;4.43;2.60;;;-16.30;99.90;;;;;;5091059;28;20182;-78
2022/11/01 03:33:23;;;;;;;1.80;1.47;;;-12.90;99.90;;;;;;5090467;28;20183;-79
2022/11/01 03:35:52;;;;;;;1.90;1.07;;;-16.40;99.90;;;;;;5096137;28;20178;-77
2022/11/01 03:38:23;;;;;;;1.40;1.20;;;-13.40;99.90;;;;;;5092673;28;20194;-82
2022/11/01 03:40:56;;;;;;;2.33;1.13;;;-16.10;99.90;;;;;;5092650;28;20178;-73
2022/11/01 03:43:25;;;;;;;2.93;0.77;;;-14.10;99.90;;;;;;5088252;28;20211;-73
2022/11/01 03:45:51;;;;;;;2.77;0.93;;;-14.70;99.90;;;;;;5090680;28;20556;-73
2022/11/01 03:48:17;;;;;;;1.03;0.80;;;-12.50;99.90;;;;;;5096374;28;20166;-74
2022/11/01 03:50:51;;;;;;;3.60;0.80;;;-17.20;99.90;;;;;;5095918;28;20175;-72
2022/11/01 03:53:17;;;;;;;4.00;1.00;;;-13.90;99.90;;;;;;5096029;28;20339;-78
2022/11/01 03:55:43;;;;;;;4.50;1.20;;;-15.10;99.90;;;;;;5095977;28;20202;-72
2022/11/01 03:58:09;;;;;;;2.17;0.97;;;-13.20;99.90;;;;;;5095919;28;20187;-72
2022/11/01 04:00:43;;;;;;;6.50;1.10;;;-17.20;99.90;;;;;;5091953;28;20615;-73
2022/11/01 04:03:10;;;;;;;2.40;0.87;;;-20.20;99.90;;;;;;5090036;28;20569;-72
2022/11/01 04:05:39;;;;;;;2.77;1.00;;;-16.40;99.90;;;;;;5094249;28;20585;-71
2022/11/01 04:08:05;;;;;;;8.40;1.43;;;-15.50;99.90;;;;;;5087839;28;20232;-73
2022/11/01 04:10:31;;;;;;;1.20;1.10;;;-14.80;99.90;;;;;;5089200;28;20179;-74
2022/11/01 04:12:58;;;;;;;3.00;1.20;;;-14.30;99.90;;;;;;5088866;28;20181;-71
2022/11/01 04:21:13;;;;;;;3.33;1.10;;;-17.50;99.90;;;;;;5088327;28;20512;-73
2022/11/01 04:23:40;;;;;;;4.93;1.73;;;-13.30;99.90;;;;;;5088609;28;20195;-72
2022/11/01 04:26:06;;;;;;;0.57;0.50;;;-14.50;99.90;;;;;;5091128;28;20179;-73
2022/11/01 04:28:32;;;;;;;6.83;3.10;;;-16.70;99.90;;;;;;5088268;28;20182;-71
2022/11/01 04:30:57;;;;;;;2.00;0.67;;;-16.60;99.90;;;;;;5094826;28;20236;-73
2022/11/01 04:33:23;;;;;;;3.07;1.23;;;-13.00;99.90;;;;;;5091049;28;20583;-74
2022/11/01 04:35:49;;;;;;;3.03;1.17;;;-14.00;99.90;;;;;;5095620;28;20186;-73
2022/11/01 04:38:15;;;;;;;2.63;0.80;;;-15.30;99.90;;;;;;5079153;28;20187;-72
2022/11/01 04:40:42;;;;;;;4.70;1.30;;;-16.20;99.90;;;;;;5090373;28;20836;-71
2022/11/01 04:43:08;;;;;;;1.97;0.77;;;-15.90;99.90;;;;;;5089130;28;20198;-76
2022/11/01 04:45:34;;;;;;;5.33;1.30;;;-17.20;99.90;;;;;;5095397;28;20200;-76
2022/11/01 04:48:02;;;;;;;3.43;0.90;;;-19.00;99.90;;;;;;5094311;28;20526;-74
2022/11/01 04:50:28;;;;;;;4.60;1.20;;;-17.50;99.90;;;;;;5090959;28;20231;-77
2022/11/01 04:52:56;;;;;;;6.47;1.50;;;-18.00;99.90;;;;;;5095294;28;20265;-75
2022/11/01 04:55:22;;;;;;;1.80;0.90;;;-14.10;99.90;;;;;;5084768;28;20183;-75
2022/11/01 04:57:47;;;;;;;4.90;1.37;;;-17.80;99.90;;;;;;5092071;28;20221;-76
2022/11/01 05:00:13;;;;;;;5.20;1.00;;;-18.40;99.90;;;;;;5095013;28;20187;-74
2022/11/01 05:02:39;;;;;;;2.83;1.43;;;-18.10;99.90;;;;;;5090864;28;20206;-78
2022/11/01 05:05:07;;;;;;;0.93;0.60;;;-16.30;99.90;;;;;;5087615;28;20184;-75
2022/11/01 05:07:34;;;;;;;9.50;1.33;;;-17.40;99.90;;;;;;5090124;28;20262;-75
2022/11/01 05:10:01;;;;;;;7.40;1.80;;;-19.70;99.90;;;;;;5086756;28;20187;-76
2022/11/01 05:12:27;;;;;;;5.73;1.80;;;-13.60;99.90;;;;;;5087531;28;20269;-75
2022/11/01 05:14:53;;;;;;;7.17;1.33;;;-16.70;99.90;;;;;;5080189;28;20179;-75
2022/11/01 05:17:19;;;;;;;3.30;1.17;;;-20.90;99.90;;;;;;5091538;28;20462;-76
2022/11/01 05:19:44;;;;;;;4.27;1.10;;;-15.70;99.90;;;;;;5094068;28;20174;-79
2022/11/01 05:22:10;;;;;;;3.83;1.43;;;-12.70;99.90;;;;;;5092467;28;20217;-77
2022/11/01 05:24:36;;;;;;;2.63;1.23;;;-14.10;99.90;;;;;;5093141;28;20596;-74
2022/11/01 05:27:02;;;;;;;7.20;1.33;;;-19.80;99.90;;;;;;5092339;28;20174;-70
2022/11/01 05:29:27;;;;;;;4.43;1.20;;;-17.10;99.90;;;;;;5093289;28;20544;-73
2022/11/01 05:31:53;;;;;;;7.23;1.70;;;-16.80;99.90;;;;;;5097666;28;20217;-73
2022/11/01 05:34:19;;;;;;;4.90;1.67;;;-17.40;99.90;;;;;;5091082;28;20174;-72
2022/11/01 05:36:45;;;;;;;5.70;1.23;;;-14.10;99.90;;;;;;5093927;28;20547;-74
2022/11/01 05:39:11;;;;;;;5.53;1.40;;;-16.50;99.90;;;;;;5098394;28;20608;-74
2022/11/01 05:41:37;;;;;;;4.17;1.00;;;-18.80;99.90;;;;;;5098363;28;20182;-78
2022/11/01 05:44:03;;;;;;;7.30;1.47;;;-19.10;99.90;;;;;;5098230;28;20290;-73
2022/11/01 05:46:29;;;;;;;5.20;1.20;;;-18.50;99.90;;;;;;5098117;28;20286;-70
2022/11/01 05:48:54;;;;;;;6.27;2.00;;;-18.30;99.90;;;;;;5097940;28;20219;-73
2022/11/01 05:51:20;;;;;;;2.53;1.43;;;-13.50;99.90;;;;;;5098333;28;20183;-71
2022/11/01 05:53:49;;;;;;;4.43;1.00;;;-15.80;99.90;;;;;;5091224;28;20280;-72
2022/11/01 05:56:16;;;;;;;12.23;3.03;;;-16.60;99.90;;;;;;5086710;28;20179;-70
2022/11/01 05:58:41;;;;;;;6.80;2.00;;;-16.40;99.90;;;;;;5085917;28;20183;-75
2022/11/01 06:01:07;;;;;;;11.23;2.10;;;-17.40;99.90;;;;;;5088668;28;20194;-75
2022/11/01 06:03:34;;;;;;;8.93;1.50;;;-15.20;99.90;;;;;;5089443;28;20205;-73
2022/11/01 06:05:59;;;;;;;15.83;1.80;;;-17.30;99.90;;;;;;5093077;28;20179;-74
2022/11/01 06:08:26;;;;;;;8.87;2.20;;;-16.80;99.90;;;;;;5097068;28;20524;-75
2022/11/01 06:10:52;;;;;;;8.80;1.60;;;-15.20;99.90;;;;;;5086249;28;20183;-77
2022/11/01 06:13:18;;;;;;;5.40;2.73;;;-13.40;99.90;;;;;;5092011;28;20211;-75
2022/11/01 06:15:44;;;;;;;10.13;2.03;;;-16.10;99.90;;;;;;5094187;28;20590;-80
2022/11/01 06:18:10;;;;;;;8.80;2.47;;;-15.10;99.90;;;;;;5088075;28;20186;-75
2022/11/01 06:20:35;;;;;;;8.50;2.40;;;-15.70;99.90;;;;;;5089958;28;20190;-78
2022/11/01 06:23:08;;;;;;;11.70;2.00;;;-15.40;99.90;;;;;;5097449;28;20210;-78
2022/11/01 06:25:35;;;;;;;7.43;2.33;;;-15.00;99.90;;;;;;5093262;28;20595;-76
2022/11/01 06:28:01;;;;;;;10.83;3.23;;;-14.90;99.90;;;;;;5097214;28;20182;-77
2022/11/01 06:30:27;;;;;;;12.60;3.57;;;-15.90;99.90;;;;;;5081952;28;20175;-77
2022/11/01 06:32:59;;;;;;;12.63;2.57;;;-14.50;99.90;;;;;;5089808;28;20258;-75
2022/11/01 06:35:26;;;;;;;6.57;3.03;;;-12.30;99.90;;;;;;5094836;28;20192;-77
2022/11/01 06:37:53;;;;;;;6.20;1.40;;;-17.90;99.90;;;;;;5096504;28;20175;-76
2022/11/01 06:40:19;;;;;;;16.30;3.57;;;-15.90;99.90;;;;;;5094247;28;20293;-77
2022/11/01 06:42:44;;;;;;;8.43;1.80;;;-15.00;99.90;;;;;;5094975;28;20660;-76
2022/11/01 06:45:10;;;;;;;9.53;1.80;;;-10.40;99.90;;;;;;5091771;28;20184;-73
2022/11/01 06:47:36;;;;;;;11.93;2.00;;;-11.30;99.90;;;;;;5086064;28;20175;-75
2022/11/01 06:50:03;;;;;;;14.40;2.20;;;-11.90;99.90;;;;;;5097124;28;20183;-78
2022/11/01 06:52:29;;;;;;;10.27;3.87;;;-12.80;99.90;;;;;;5096936;28;20519;-78
2022/11/01 06:54:55;;;;;;;8.50;2.23;;;-12.70;99.90;;;;;;5091971;28;20186;-77
2022/11/01 06:57:20;;;;;;;8.57;2.03;;;-10.70;99.90;;;;;;5086894;28;20183;-79
2022/11/01 06:59:46;;;;;;;6.37;1.77;;;-11.70;99.90;;;;;;5095923;28;20235;-78
2022/11/01 07:02:12;;;;;;;4.97;2.27;;;-10.20;99.90;;;;;;5088726;28;20507;-72
2022/11/01 07:04:37;;;;;;;7.70;2.10;;;-12.70;99.90;;;;;;5089397;28;20179;-73
2022/11/01 07:07:03;;;;;;;14.80;3.03;;;-11.60;99.90;;;;;;5078054;28;20471;-77
2022/11/01 07:09:29;;;;;;;12.30;1.83;;;-10.40;99.90;;;;;;5096212;28;20199;-73
2022/11/01 07:11:55;;;;;;;12.43;3.37;;;-10.70;99.90;;;;;;5090555;28;20182;-76
2022/11/01 07:14:21;;;;;;;5.87;2.00;;;-11.80;99.90;;;;;;5096688;28;20190;-72
2022/11/01 07:16:47;;;;;;;7.90;1.73;;;-10.60;99.90;;;;;;5086036;28;20183;-72
2022/11/01 07:19:13;;;;;;;11.60;1.90;;;-9.40;99.90;;;;;;5093324;28;20240;-75
2022/11/01 07:21:39;;;;;;;4.53;2.20;;;-10.30;99.90;;;;;;5090613;28;20187;-73
2022/11/01 07:24:05;;;;;;;9.10;2.50;;;-12.20;99.90;;;;;;5085967;28;20343;-73
2022/11/01 07:26:33;;;;;;;6.50;1.63;;;-13.30;99.90;;;;;;5091361;28;20178;-69
2022/11/01 07:28:59;;;;;;;3.93;1.37;;;-15.50;99.90;;;;;;5088149;28;20182;-72
2022/11/01 07:31:24;;;;;;;12.33;2.83;;;-13.70;99.90;;;;;;5085817;28;20181;-72
2022/11/01 07:33:51;;;;;;;14.33;3.03;;;-12.20;99.90;;;;;;5086557;28;20194;-71
2022/11/01 07:36:17;;;;;;;5.93;2.27;;;-15.90;99.90;;;;;;5091694;28;20179;-72
2022/11/01 07:38:44;;;;;;;14.37;2.67;;;-15.20;99.90;;;;;;5089257;28;20249;-73
2022/11/01 07:41:10;;;;;;;9.17;2.03;;;-14.00;99.90;;;;;;5086614;28;20182;-74
2022/11/01 07:43:37;;;;;;;11.80;3.03;;;-14.50;99.90;;;;;;5096596;28;20201;-73
2022/11/01 07:46:04;;;;;;;7.83;2.33;;;-13.20;99.90;;;;;;5087694;28;20238;-72
2022/11/01 07:48:30;;;;;;;5.37;2.13;;;-15.90;99.90;;;;;;5087818;28;20180;-74
2022/11/01 07:50:56;;;;;;;10.17;2.00;;;-14.30;99.90;;;;;;5087353;28;20583;-71
2022/11/01 07:53:22;;;;;;;11.43;2.87;;;-14.90;99.90;;;;;;5092154;28;20213;-73
2022/11/01 07:55:48;;;;;;;14.03;4.07;;;-15.50;99.90;;;;;;5085394;28;20213;-76
2022/11/01 07:58:14;;;;;;;13.77;3.63;;;-14.80;99.90;;;;;;5090984;28;20186;-72
2022/11/01 08:00:44;;;;;;;6.33;1.90;;;-14.70;99.90;;;;;;5092268;28;20492;-72
2022/11/01 08:03:15;;;;;;;9.40;3.30;;;-15.40;99.90;;;;;;5087712;28;20206;-69
2022/11/01 08:05:41;;;;;;;9.03;2.63;;;-15.50;99.90;;;;;;5091242;28;20189;-70
2022/11/01 08:08:08;;;;;;;9.57;3.10;;;-15.40;99.90;;;;;;5090952;28;20577;-75
2022/11/01 08:10:34;;;;;;;7.63;2.27;;;-14.30;99.90;;;;;;5094737;28;20469;-73
2022/11/01 08:13:17;;;;;;;10.90;2.63;;;-15.40;99.90;;;;;;5090513;28;20474;-75
2022/11/01 08:15:44;;;;;;;9.37;1.97;;;-14.30;99.90;;;;;;5091644;28;20598;-72
2022/11/01 08:18:10;;;;;;;4.90;1.77;;;-13.30;99.90;;;;;;5094357;28;20179;-68
2022/11/01 08:20:36;;;;;;;10.40;2.83;;;-18.10;99.90;;;;;;5089013;28;20181;-70
2022/11/01 08:23:03;;;;;;;6.10;1.90;;;-15.30;99.90;;;;;;5087742;28;20216;-69
2022/11/01 08:25:29;;;;;;;9.17;2.63;;;-15.60;99.90;;;;;;5085149;28;20185;-70
2022/11/01 08:28:03;;;;;;;10.37;2.63;;;-15.60;99.90;;;;;;5090365;28;20252;-72
2022/11/01 08:30:29;;;;;;;13.13;3.00;;;-16.90;99.90;;;;;;5098621;28;20214;-73
2022/11/01 08:33:00;;;;;;;9.77;2.60;;;-16.30;99.90;;;;;;5084357;28;20276;-72
2022/11/01 08:35:26;;;;;;;10.70;2.40;;;-19.20;99.90;;;;;;5088964;28;20605;-76
2022/11/01 08:37:53;;;;;;;9.90;2.13;;;-16.50;99.90;;;;;;5090556;28;20171;-76
2022/11/01 08:40:19;;;;;;;6.00;2.40;;;-13.70;99.90;;;;;;5082964;28;20187;-73
2022/11/01 08:42:46;;;;;;;7.57;1.90;;;-16.30;99.90;;;;;;5089352;28;20233;-77
2022/11/01 08:45:12;;;;;;;10.07;3.37;;;-17.20;99.90;;;;;;5094417;28;20249;-76
2022/11/01 08:47:39;;;;;;;21.03;4.20;;;-14.10;99.90;;;;;;5090448;28;20183;-75
2022/11/01 08:50:06;;;;;;;8.53;3.30;;;-15.20;99.90;;;;;;5088113;28;20544;-77
2022/11/01 08:52:32;;;;;;;12.53;2.73;;;-13.10;99.90;;;;;;5078145;28;20237;-78
2022/11/01 08:54:58;;;;;;;9.00;2.30;;;-12.70;99.90;;;;;;5087923;28;20195;-73
2022/11/01 08:57:24;;;;;;;9.10;2.77;;;-13.70;99.90;;;;;;5090387;28;20190;-74
2022/11/01 08:59:50;;;;;;;7.33;2.97;;;-18.40;99.90;;;;;;5088979;28;20209;-73
2022/11/01 09:02:16;;;;;;;13.53;3.13;;;-17.40;99.90;;;;;;5091563;28;20206;-73
2022/11/01 09:04:41;;;;;;;9.93;2.53;;;-18.80;99.90;;;;;;5098219;28;20208;-72
2022/11/01 09:07:07;;;;;;;12.43;2.97;;;-18.10;99.90;;;;;;5098334;28;20642;-73
2022/11/01 09:09:33;;;;;;;8.77;2.73;;;-22.40;99.90;;;;;;5095268;28;20255;-75
2022/11/01 09:11:59;;;;;;;4.30;2.00;;;-17.30;99.90;;;;;;5096164;28;20500;-74
2022/11/01 09:14:25;;;;;;;8.60;3.00;;;-16.10;99.90;;;;;;5093147;28;20258;-70
2022/11/01 09:16:51;;;;;;;8.67;2.87;;;-14.20;99.90;;;;;;5091655;28;20178;-71
2022/11/01 09:19:17;;;;;;;13.00;2.47;;;-14.40;99.90;;;;;;5096306;28;20179;-70
2022/11/01 09:21:44;;;;;;;13.10;3.07;;;-14.90;99.90;;;;;;5095182;28;20189;-73
2022/11/01 09:24:10;;;;;;;9.77;2.73;;;-13.70;99.90;;;;;;5091226;28;20205;-69
2022/11/01 09:26:36;;;;;;;11.53;2.57;;;-13.60;99.90;;;;;;5091813;28;20178;-72
2022/11/01 09:29:03;;;;;;;7.97;2.17;;;-15.40;99.90;;;;;;5091452;28;20183;-70
2022/11/01 09:31:29;;;;;;;10.47;3.30;;;-16.00;99.90;;;;;;5097938;28;20182;-69
2022/11/01 09:33:56;;;;;;;8.63;2.03;;;-15.10;99.90;;;;;;5097545;28;20539;-70
2022/11/01 09:36:23;;;;;;;16.37;4.03;;;-19.40;99.90;;;;;;5090415;28;20206;-71
2022/11/01 09:38:50;;;;;;;10.30;2.63;;;-16.50;99.90;;;;;;5098581;28;20182;-68
2022/11/01 09:41:28;;;;;;;10.00;2.97;;;-15.10;99.90;;;;;;5099851;28;20245;-70
2022/11/01 09:43:56;;;;;;;9.07;2.87;;;-14.40;99.90;;;;;;5093018;28;20261;-71
2022/11/01 09:46:30;;;;;;;5.90;1.93;;;-14.60;99.90;;;;;;5091391;28;20460;-67
2022/11/01 09:49:00;;;;;;;5.67;2.27;;;-14.00;99.90;;;;;;5088161;28;20178;-74
2022/11/01 09:51:26;;;;;;;10.40;3.10;;;-14.40;99.90;;;;;;5090632;28;20178;-70
2022/11/01 09:53:55;;;;;;;12.17;2.30;;;-14.30;99.90;;;;;;5091301;28;20178;-70
2022/11/01 09:56:27;;;;;;;7.00;2.70;;;-13.90;99.90;;;;;;5098777;28;20620;-70
2022/11/01 09:59:22;;;;;;;7.43;2.03;;;-16.20;99.90;;;;;;5088360;28;20184;-72
2022/11/01 10:02:24;;;;;;;4.27;1.90;;;-13.90;99.90;;;;;;5085755;28;20214;-69
2022/11/01 10:05:27;;;;;;;6.07;2.90;;;-17.90;99.90;;;;;;5093726;28;20186;-70
2022/11/01 10:08:30;;;;;;;6.57;1.93;;;-12.60;99.90;;;;;;5090278;28;20261;-70
2022/11/01 10:11:26;;;;;;;10.47;3.10;;;-10.60;99.90;;;;;;5099139;28;20178;-70
2022/11/01 10:14:04;;;;;;;10.27;2.53;;;-13.50;99.90;;;;;;5096827;28;20200;-69
2022/11/01 10:16:29;;;;;;;9.13;1.90;;;-16.90;99.90;;;;;;5094258;28;20967;-70
2022/11/01 10:19:20;;;;;;;8.33;2.10;;;-13.90;99.90;;;;;;5090625;28;20183;-70
2022/11/01 10:21:51;;;;;;;15.87;3.97;;;-10.00;99.90;;;;;;5084077;28;20515;-73
2022/11/01 10:24:27;;;;;;;9.17;1.90;;;-11.80;99.90;;;;;;5091311;28;20207;-69
2022/11/01 10:27:01;;;;;;;9.23;1.73;;;-13.80;99.90;;;;;;5113980;27;20177;-77
2022/11/01 10:30:02;;;;;;;11.10;2.43;;;-10.10;99.90;;;;;;5096994;28;20477;-72
2022/11/01 10:32:35;;;;;;;19.13;6.00;;;-11.10;99.90;;;;;;5090608;28;20225;-71
2022/11/01 10:35:09;;;;;;;8.70;1.83;;;-11.90;99.90;;;;;;5090835;28;20586;-70
2022/11/01 10:37:42;;;;;;;9.03;2.57;;;-12.20;99.90;;;;;;5084725;28;20561;-71
2022/11/01 10:40:15;;;;;;;8.07;2.43;;;-15.70;99.90;;;;;;5091915;28;20676;-73
2022/11/01 10:42:40;;;;;;;11.37;2.63;;;-17.60;99.90;;;;;;5096187;28;20222;-69
2022/11/01 10:45:10;;;;;;;6.77;2.87;;;-16.30;99.90;;;;;;5089013;28;20537;-69
2022/11/01 10:47:37;;;;;;;14.20;2.80;;;-15.70;99.90;;;;;;5090024;28;20178;-72
2022/11/01 10:50:17;;;;;;;7.60;2.10;;;-14.80;99.90;;;;;;5096602;28;20175;-75
2022/11/01 10:53:00;;;;;;;8.50;2.83;;;-15.60;99.90;;;;;;5093245;28;20187;-72
2022/11/01 10:55:29;;;;;;;11.20;2.63;;;-14.00;99.90;;;;;;5087051;28;20493;-69
2022/11/01 10:58:22;;;;;;;7.30;2.17;;;-12.60;99.90;;;;;;5084664;28;20220;-74
2022/11/01 11:00:48;;;;;;;10.63;2.70;;;-13.70;99.90;;;;;;5086432;28;20186;-70
2022/11/01 11:03:30;;;;;;;14.17;3.43;;;-12.30;99.90;;;;;;5088396;28;20252;-68
2022/11/01 11:05:59;;;;;;;7.87;2.73;;;-15.60;99.90;;;;;;5090363;28;20171;-69
2022/11/01 11:08:25;;;;;;;7.43;2.07;;;-13.00;99.90;;;;;;5088012;28;20239;-75
2022/11/01 11:10:52;;;;;;;9.53;2.07;;;-10.60;99.90;;;;;;5092162;28;20182;-75
2022/11/01 11:13:24;;;;;;;14.33;2.33;;;-12.80;99.90;;;;;;5090533;28;20217;-72
2022/11/01 11:16:04;;;;;;;5.83;1.90;;;-12.70;99.90;;;;;;5085743;28;20187;-77
2022/11/01 11:18:32;;;;;;;12.77;3.23;;;-11.20;99.90;;;;;;5090066;28;20190;-78
2022/11/01 11:21:03;;;;;;;7.00;2.67;;;-11.80;99.90;;;;;;5087409;28;20182;-69
2022/11/01 11:23:35;;;;;;;7.10;2.53;;;-9.50;99.90;;;;;;5084238;28;20250;-68
2022/11/01 11:26:03;;;;;;;5.30;1.40;;;-12.80;99.90;;;;;;5096326;28;20188;-69
2022/11/01 11:28:33;;;;;;;13.33;2.70;;;-16.70;99.90;;;;;;5096048;28;20179;-72
2022/11/01 11:31:27;;;;;;;22.30;3.27;;;-21.20;99.90;;;;;;5082567;28;20182;-71
2022/11/01 11:33:55;;;;;;;7.77;2.47;;;-15.60;99.90;;;;;;5073237;28;20255;-73
2022/11/01 11:36:29;;;;;;;6.83;1.77;;;-13.80;99.90;;;;;;5087106;28;20575;-70
2022/11/01 11:38:55;;;;;;;8.00;1.47;;;-11.50;99.90;;;;;;5087007;28;20213;-71
2022/11/01 11:41:33;;;;;;;8.97;2.67;;;-15.40;99.90;;;;;;5088678;28;20218;-71
2022/11/01 11:43:59;;;;;;;7.63;2.30;;;-19.30;99.90;;;;;;5093386;28;20279;-70
2022/11/01 11:46:25;;;;;;;9.17;2.17;;;-22.00;99.10;;;;;;5094895;28;20206;-72
2022/11/01 11:49:05;;;;;;;5.50;1.53;;;-17.70;98.90;;;;;;5100936;28;20187;-71
2022/11/01 11:51:37;;;;;;;9.53;3.13;;;-21.70;97.40;;;;;;5098065;28;20212;-71
2022/11/01 11:54:24;;;;;;;9.37;1.77;;;-36.80;91.50;;;;;;5086876;28;20190;-69
2022/11/01 11:57:06;;;;;;;8.90;3.70;;;-40.00;87.90;;;;;;5095438;28;20296;-70
2022/11/01 11:59:32;;;;;;;5.73;1.73;;;-40.00;86.90;;;;;;5094663;28;20627;-69
2022/11/01 12:02:02;;;;;;;5.57;2.27;;;-40.00;86.00;;;;;;5086877;28;20206;-68
2022/11/01 12:04:39;;;;;;;2.67;1.60;;;-40.00;84.90;;;;;;5095174;28;20245;-70
2022/11/01 12:07:10;;;;;;;7.20;2.30;;;-40.00;83.70;;;;;;5088191;28;20252;-68
2022/11/01 12:09:45;;;;;;;6.23;2.30;;;-40.00;81.60;;;;;;5092455;28;20174;-70
2022/11/01 12:12:18;;;;;;;10.10;2.47;;;-40.00;80.20;;;;;;5086547;28;20175;-69
2022/11/01 12:14:44;;;;;;;6.73;1.57;;;-40.00;76.90;;;;;;5093515;28;20186;-69
2022/11/01 12:17:43;;;;;;;1.80;1.20;;;-40.00;80.50;;;;;;5080670;28;20215;-71
2022/11/01 12:20:24;;;;;;;9.03;1.83;;;-40.00;77.00;;;;;;5088761;28;20187;-69
2022/11/01 12:23:25;;;;;;;3.47;1.60;;;-40.00;76.70;;;;;;5071685;28;20209;-71
2022/11/01 12:25:52;;;;;;;5.93;1.60;;;-40.00;76.20;;;;;;5089045;28;20237;-70
2022/11/01 12:28:31;;;;;;;12.73;2.30;;;-40.00;74.20;;;;;;5090518;28;20182;-70
2022/11/01 12:31:03;;;;;;;4.70;1.40;;;-40.00;73.90;;;;;;5089034;28;20182;-70
2022/11/01 12:33:41;;;;;;;5.83;2.07;;;-40.00;73.20;;;;;;5090221;28;21446;-71
2022/11/01 12:36:09;;;;;;;10.03;2.40;;;-40.00;73.30;;;;;;5094288;28;20182;-69
2022/11/01 12:39:03;;;;;;;4.03;1.73;;;-40.00;72.40;;;;;;5094555;28;20174;-70
2022/11/01 12:41:47;;;;;;;5.90;1.60;;;-40.00;69.70;;;;;;5094547;28;20186;-68
2022/11/01 12:44:36;;;;;;;8.20;2.27;;;-40.00;68.10;;;;;;5090660;28;20205;-70
2022/11/01 12:47:29;;;;;;;5.97;1.60;;;-40.00;66.30;;;;;;5094194;28;20572;-67
2022/11/01 12:50:04;;;;;;;5.57;1.20;;;-40.00;67.70;;;;;;5093199;28;20488;-69
2022/11/01 12:52:41;;;;;;;6.17;1.47;;;-40.00;67.10;;;;;;5094516;28;20269;-72
2022/11/01 12:55:24;;;;;;;5.00;1.87;;;-40.00;67.30;;;;;;5090530;28;20562;-69
2022/11/01 12:57:50;;;;;;;5.63;1.80;;;-40.00;67.60;;;;;;5110066;27;20547;-71